createdAt,value
2023-01-31T00:00:24.134Z,0.10
2023-01-31T00:03:11.028Z,0.20
2023-01-31T00:05:58.150Z,0.20
2023-01-31T00:08:45.649Z,0.30
2023-01-31T00:11:32.289Z,0.50
2023-01-31T00:14:20.665Z,0.70
2023-01-31T00:17:07.224Z,0.80
2023-01-31T00:19:53.706Z,0.70
2023-01-31T00:22:40.131Z,0.70
2023-01-31T00:25:26.445Z,0.60
2023-01-31T00:28:13.116Z,0.30
2023-01-31T00:30:59.705Z,0.30
2023-01-31T00:33:47.881Z,0.10
2023-01-31T00:36:35.888Z,0.00
2023-01-31T00:39:23.035Z,0.00
2023-01-31T00:41:56.443Z,0.00
2023-01-31T00:44:24.397Z,0.00
2023-01-31T00:46:52.521Z,0.00
2023-01-31T00:49:20.461Z,0.00
2023-01-31T00:51:48.409Z,-0.10
2023-01-31T00:54:18.446Z,0.00
2023-01-31T00:56:46.460Z,-0.10
2023-01-31T00:59:14.430Z,-0.10
2023-01-31T01:01:42.475Z,0.00
2023-01-31T01:04:10.767Z,-0.10
2023-01-31T01:06:41.613Z,-0.10
2023-01-31T01:09:10.032Z,-0.10
2023-01-31T01:11:38.239Z,-0.10
2023-01-31T01:14:06.952Z,-0.10
2023-01-31T01:16:38.622Z,-0.10
2023-01-31T01:19:13.061Z,-0.10
2023-01-31T01:21:41.299Z,0.00
2023-01-31T01:24:17.800Z,0.10
2023-01-31T01:26:46.143Z,0.00
2023-01-31T01:29:14.631Z,-0.10
2023-01-31T01:31:43.381Z,-0.10
2023-01-31T01:34:16.681Z,0.00
2023-01-31T01:36:47.784Z,0.00
2023-01-31T01:39:17.142Z,-0.10
2023-01-31T01:41:46.397Z,0.00
2023-01-31T01:44:43.031Z,0.10
2023-01-31T01:47:20.110Z,0.20
2023-01-31T01:49:53.487Z,0.20
2023-01-31T01:52:22.773Z,0.30
2023-01-31T01:55:04.213Z,0.50
2023-01-31T01:57:40.480Z,0.60
2023-01-31T02:00:19.697Z,0.40
2023-01-31T02:02:50.871Z,0.30
2023-01-31T02:05:26.916Z,0.30
2023-01-31T02:07:57.425Z,0.20
2023-01-31T02:11:03.771Z,0.30
2023-01-31T02:13:32.346Z,0.40
2023-01-31T02:16:01.051Z,0.50
2023-01-31T02:18:29.878Z,0.50
2023-01-31T02:21:20.876Z,0.40
2023-01-31T02:24:07.746Z,0.30
2023-01-31T02:26:55.361Z,0.30
2023-01-31T02:29:40.104Z,0.40
2023-01-31T02:32:38.170Z,0.40
2023-01-31T02:35:24.944Z,0.40
2023-01-31T02:38:16.094Z,0.40
2023-01-31T02:40:56.144Z,0.30
2023-01-31T02:44:04.294Z,0.20
2023-01-31T02:47:20.202Z,0.30
2023-01-31T02:49:58.401Z,0.30
2023-01-31T02:52:34.021Z,0.30
2023-01-31T02:55:45.081Z,0.40
2023-01-31T02:58:18.094Z,0.40
2023-01-31T03:00:48.443Z,0.30
2023-01-31T03:03:21.501Z,0.30
2023-01-31T03:06:29.886Z,0.30
2023-01-31T03:09:04.554Z,0.30
2023-01-31T03:12:03.756Z,0.30
2023-01-31T03:14:45.169Z,0.30
2023-01-31T03:17:55.244Z,0.40
2023-01-31T03:20:53.048Z,0.50
2023-01-31T03:23:25.255Z,0.50
2023-01-31T03:25:53.309Z,0.50
2023-01-31T03:28:30.144Z,0.40
2023-01-31T03:31:21.300Z,0.10
2023-01-31T03:33:55.660Z,-0.10
2023-01-31T03:36:57.586Z,-0.40
2023-01-31T03:39:45.033Z,-0.50
2023-01-31T03:42:21.525Z,-0.50
2023-01-31T03:45:04.340Z,-0.50
2023-01-31T03:47:39.046Z,-0.60
2023-01-31T03:50:31.012Z,-0.50
2023-01-31T03:53:19.811Z,-0.50
2023-01-31T03:56:11.384Z,-0.70
2023-01-31T03:58:44.245Z,-0.80
2023-01-31T04:01:15.275Z,-0.70
2023-01-31T04:03:49.997Z,-0.60
2023-01-31T04:06:18.210Z,-0.40
2023-01-31T04:08:46.681Z,-0.40
2023-01-31T04:11:21.903Z,-0.20
2023-01-31T04:13:49.865Z,0.00
2023-01-31T04:16:18.442Z,0.00
2023-01-31T04:18:46.479Z,0.00
2023-01-31T04:21:15.524Z,0.00
2023-01-31T04:23:43.617Z,0.10
2023-01-31T04:26:12.453Z,0.20
2023-01-31T04:28:41.389Z,0.20
2023-01-31T04:31:10.773Z,0.20
2023-01-31T04:33:38.776Z,0.10
2023-01-31T04:36:07.903Z,0.10
2023-01-31T04:38:36.716Z,0.10
2023-01-31T04:41:05.863Z,-0.10
2023-01-31T04:43:34.857Z,-0.10
2023-01-31T04:46:02.986Z,-0.20
2023-01-31T04:48:31.010Z,-0.40
2023-01-31T04:50:59.094Z,-0.50
2023-01-31T04:53:27.714Z,-0.50
2023-01-31T04:55:55.999Z,-0.40
2023-01-31T04:58:24.271Z,-0.40
2023-01-31T05:00:54.377Z,-0.40
2023-01-31T05:03:23.243Z,-0.30
2023-01-31T05:05:51.967Z,-0.30
2023-01-31T05:08:20.730Z,-0.30
2023-01-31T05:10:49.548Z,-0.30
2023-01-31T05:13:17.511Z,-0.40
2023-01-31T05:15:49.611Z,-0.40
2023-01-31T05:18:18.390Z,-0.50
2023-01-31T05:20:50.276Z,-0.50
2023-01-31T05:23:19.494Z,-0.70
2023-01-31T05:25:50.930Z,-0.70
2023-01-31T05:28:19.831Z,-0.60
2023-01-31T05:30:48.060Z,-0.90
2023-01-31T05:33:16.410Z,-0.90
2023-01-31T05:35:44.767Z,-0.80
2023-01-31T05:38:12.956Z,-0.70
2023-01-31T05:40:40.879Z,-0.60
2023-01-31T05:43:09.789Z,-0.60
2023-01-31T05:45:37.761Z,-0.60
2023-01-31T05:48:05.909Z,-0.80
2023-01-31T05:50:34.571Z,-0.90
2023-01-31T05:53:11.253Z,-0.70
2023-01-31T05:55:39.726Z,-0.60
2023-01-31T05:58:07.823Z,-0.50
2023-01-31T06:00:35.779Z,-0.70
2023-01-31T06:03:04.599Z,-0.90
2023-01-31T06:05:33.948Z,-0.90
2023-01-31T06:08:02.535Z,-1.00
2023-01-31T06:10:30.964Z,-1.00
2023-01-31T06:12:58.876Z,-1.10
2023-01-31T06:15:27.283Z,-1.00
2023-01-31T06:17:55.873Z,-0.90
2023-01-31T06:20:23.939Z,-0.80
2023-01-31T06:22:53.032Z,-0.70
2023-01-31T06:25:21.658Z,-0.70
2023-01-31T06:27:49.850Z,-0.50
2023-01-31T06:30:18.360Z,-0.40
2023-01-31T06:32:46.372Z,-0.50
2023-01-31T06:35:14.982Z,-0.70
2023-01-31T06:37:42.914Z,-0.80
2023-01-31T06:40:11.815Z,-0.80
2023-01-31T06:42:40.831Z,-0.60
2023-01-31T06:45:10.060Z,-0.40
2023-01-31T06:47:38.357Z,-0.30
2023-01-31T06:50:07.005Z,0.20
2023-01-31T06:52:35.372Z,0.40
2023-01-31T06:55:03.569Z,0.60
2023-01-31T06:57:31.672Z,0.90
2023-01-31T06:59:59.870Z,1.30
2023-01-31T07:02:27.900Z,1.70
2023-01-31T07:04:56.631Z,1.80
2023-01-31T07:07:24.898Z,1.30
2023-01-31T07:09:54.024Z,1.30
2023-01-31T07:12:22.129Z,1.30
2023-01-31T07:14:50.822Z,1.30
2023-01-31T07:17:21.282Z,1.40
2023-01-31T07:19:49.437Z,1.50
2023-01-31T07:22:18.353Z,1.70
2023-01-31T07:24:46.759Z,2.20
2023-01-31T07:27:15.862Z,2.60
2023-01-31T07:29:45.675Z,2.80
2023-01-31T07:32:14.227Z,3.30
2023-01-31T07:34:42.343Z,3.50
2023-01-31T07:37:11.042Z,4.00
2023-01-31T07:39:39.409Z,3.70
2023-01-31T07:42:07.455Z,2.90
2023-01-31T07:44:35.592Z,2.60
2023-01-31T07:47:04.211Z,3.10
2023-01-31T07:49:33.202Z,3.00
2023-01-31T07:52:02.747Z,3.40
2023-01-31T07:54:30.773Z,3.90
2023-01-31T07:56:59.039Z,4.30
2023-01-31T07:59:27.008Z,4.90
2023-01-31T08:02:13.554Z,4.70
2023-01-31T08:04:41.635Z,5.00
2023-01-31T08:07:10.569Z,5.10
2023-01-31T08:09:39.236Z,5.60
2023-01-31T08:12:08.277Z,5.20
2023-01-31T08:14:36.442Z,4.60
2023-01-31T08:17:04.528Z,5.40
2023-01-31T08:19:32.847Z,5.10
2023-01-31T08:22:01.468Z,5.60
2023-01-31T08:24:31.672Z,6.10
2023-01-31T08:27:00.626Z,6.10
2023-01-31T08:29:29.511Z,6.80
2023-01-31T08:31:58.291Z,7.30
2023-01-31T08:34:28.089Z,7.10
2023-01-31T08:36:56.124Z,6.60
2023-01-31T08:39:24.174Z,7.10
2023-01-31T08:41:52.151Z,7.80
2023-01-31T08:44:20.109Z,8.00
2023-01-31T08:46:48.195Z,8.20
2023-01-31T08:49:16.428Z,8.40
2023-01-31T08:51:45.353Z,8.50
2023-01-31T08:54:13.935Z,9.30
2023-01-31T08:56:41.901Z,9.10
2023-01-31T08:59:11.692Z,9.20
2023-01-31T09:01:41.670Z,9.60
2023-01-31T09:04:09.705Z,10.30
2023-01-31T09:06:37.636Z,10.20
2023-01-31T09:09:05.777Z,9.40
2023-01-31T09:11:36.174Z,9.90
2023-01-31T09:14:04.379Z,9.60
2023-01-31T09:16:32.579Z,9.30
2023-01-31T09:19:00.620Z,9.90
2023-01-31T09:21:28.697Z,10.10
2023-01-31T09:23:58.534Z,10.00
2023-01-31T09:26:26.639Z,10.60
2023-01-31T09:28:56.246Z,10.30
2023-01-31T09:31:24.801Z,10.10
2023-01-31T09:33:52.856Z,10.60
2023-01-31T09:36:22.581Z,10.30
2023-01-31T09:38:55.687Z,10.10
2023-01-31T09:41:32.037Z,10.20
2023-01-31T09:44:04.702Z,10.20
2023-01-31T09:46:43.522Z,10.60
2023-01-31T09:49:23.991Z,10.60
2023-01-31T09:51:58.692Z,10.80
2023-01-31T09:54:32.009Z,10.90
2023-01-31T09:57:28.403Z,11.50
2023-01-31T10:00:13.077Z,11.40
2023-01-31T10:03:02.752Z,11.60
2023-01-31T10:05:49.190Z,12.50
2023-01-31T10:08:25.882Z,12.00
2023-01-31T10:11:01.531Z,12.00
2023-01-31T10:13:46.709Z,12.00
2023-01-31T10:16:44.594Z,11.70
2023-01-31T10:19:29.276Z,12.10
2023-01-31T10:22:12.422Z,11.80
2023-01-31T10:24:47.490Z,12.10
2023-01-31T10:27:23.890Z,12.60
2023-01-31T10:29:57.212Z,12.60
2023-01-31T10:32:33.803Z,12.40
2023-01-31T10:35:12.758Z,12.40
2023-01-31T10:37:49.086Z,12.00
2023-01-31T10:40:28.993Z,12.10
2023-01-31T10:43:24.025Z,12.20
2023-01-31T10:45:52.149Z,12.30
2023-01-31T10:48:25.583Z,12.30
2023-01-31T10:51:18.311Z,12.20
2023-01-31T10:54:13.167Z,12.30
2023-01-31T10:56:47.413Z,12.10
2023-01-31T10:59:18.350Z,12.20
2023-01-31T11:01:46.489Z,12.20
2023-01-31T11:04:45.262Z,12.10
2023-01-31T11:07:14.435Z,12.00
2023-01-31T11:09:48.492Z,12.00
2023-01-31T11:12:16.413Z,12.00
2023-01-31T11:14:44.498Z,12.10
2023-01-31T11:17:23.304Z,12.00
2023-01-31T11:19:55.691Z,12.00
2023-01-31T11:22:31.413Z,11.90
2023-01-31T11:25:02.064Z,12.00
2023-01-31T11:27:36.413Z,11.90
2023-01-31T11:30:06.767Z,12.00
2023-01-31T11:32:37.420Z,12.10
2023-01-31T11:35:22.647Z,12.10
2023-01-31T11:37:59.603Z,12.00
2023-01-31T11:40:39.166Z,11.90
2023-01-31T11:43:21.895Z,11.90
2023-01-31T11:45:59.547Z,11.90
2023-01-31T11:48:42.587Z,12.00
2023-01-31T11:51:27.538Z,12.10
2023-01-31T11:53:56.548Z,12.00
2023-01-31T11:56:30.349Z,12.00
2023-01-31T11:59:04.363Z,11.80
2023-01-31T12:01:34.823Z,11.80
2023-01-31T12:04:05.194Z,11.80
2023-01-31T12:06:38.521Z,12.00
2023-01-31T12:09:20.446Z,11.80
2023-01-31T12:12:07.978Z,11.90
2023-01-31T12:14:41.812Z,12.00
2023-01-31T12:17:15.559Z,12.00
2023-01-31T12:20:21.194Z,11.80
2023-01-31T12:23:08.436Z,11.90
2023-01-31T12:25:59.405Z,12.10
2023-01-31T12:28:45.424Z,12.10
2023-01-31T12:31:31.211Z,12.00
2023-01-31T12:34:11.421Z,12.00
2023-01-31T12:36:51.385Z,11.90
2023-01-31T12:39:28.534Z,12.10
2023-01-31T12:42:02.623Z,12.00
2023-01-31T12:44:33.656Z,12.00
2023-01-31T12:47:12.026Z,11.70
2023-01-31T12:49:58.626Z,11.70
2023-01-31T12:53:00.496Z,11.80
2023-01-31T12:56:00.458Z,12.10
2023-01-31T12:59:03.005Z,11.90
2023-01-31T13:01:48.846Z,11.80
2023-01-31T13:04:19.855Z,11.90
2023-01-31T13:07:12.715Z,11.90
2023-01-31T13:09:41.009Z,11.80
2023-01-31T13:12:20.020Z,11.80
2023-01-31T13:14:52.036Z,11.80
2023-01-31T13:17:26.196Z,11.90
2023-01-31T13:19:59.325Z,11.80
2023-01-31T13:22:35.027Z,11.90
2023-01-31T13:25:23.196Z,11.90
2023-01-31T13:28:21.394Z,12.00
2023-01-31T13:33:45.077Z,11.90
2023-01-31T13:36:42.455Z,11.80
2023-01-31T13:39:24.966Z,11.70
2023-01-31T13:41:53.309Z,11.70
2023-01-31T13:44:21.335Z,11.70
2023-01-31T13:47:14.891Z,11.70
2023-01-31T13:49:49.948Z,11.60
2023-01-31T13:52:25.427Z,11.80
2023-01-31T13:55:09.074Z,11.70
2023-01-31T13:57:47.567Z,11.70
2023-01-31T14:00:43.502Z,11.70
2023-01-31T14:03:18.795Z,11.60
2023-01-31T14:05:51.548Z,11.50
2023-01-31T14:08:59.201Z,11.50
2023-01-31T14:11:27.379Z,11.50
2023-01-31T14:14:28.410Z,11.50
2023-01-31T14:16:56.869Z,11.50
2023-01-31T14:19:24.964Z,11.40
2023-01-31T14:22:16.596Z,11.40
2023-01-31T14:24:47.538Z,11.30
2023-01-31T14:27:20.472Z,11.30
2023-01-31T14:29:55.662Z,11.30
2023-01-31T14:32:31.175Z,11.20
2023-01-31T14:35:06.576Z,11.20
2023-01-31T14:37:43.102Z,11.20
2023-01-31T14:40:39.016Z,11.10
2023-01-31T14:43:47.729Z,11.00
2023-01-31T14:46:45.870Z,11.10
2023-01-31T14:49:26.858Z,11.20
2023-01-31T14:52:07.919Z,11.20
2023-01-31T14:54:57.533Z,11.10
2023-01-31T14:57:50.035Z,10.90
2023-01-31T15:00:39.055Z,10.90
2023-01-31T15:03:21.383Z,10.80
2023-01-31T15:05:56.960Z,10.70
2023-01-31T15:08:25.000Z,10.60
2023-01-31T15:10:58.244Z,10.50
2023-01-31T15:13:53.292Z,10.40
2023-01-31T15:16:35.167Z,10.50
2023-01-31T15:19:19.639Z,10.40
2023-01-31T15:21:56.697Z,10.40
2023-01-31T15:24:46.781Z,10.50
2023-01-31T15:27:24.020Z,10.50
2023-01-31T15:30:11.339Z,10.40
2023-01-31T15:33:32.594Z,10.30
2023-01-31T15:36:09.392Z,10.30
2023-01-31T15:38:57.114Z,10.20
2023-01-31T15:41:42.906Z,10.30
2023-01-31T15:44:20.511Z,10.30
2023-01-31T15:46:54.271Z,10.30
2023-01-31T15:49:39.529Z,10.10
2023-01-31T15:52:08.247Z,10.00
2023-01-31T15:54:36.735Z,9.90
2023-01-31T15:57:09.829Z,9.80
2023-01-31T15:59:38.349Z,9.60
2023-01-31T16:02:18.821Z,9.60
2023-01-31T16:04:47.068Z,9.60
2023-01-31T16:07:19.886Z,9.50
2023-01-31T16:09:48.868Z,9.40
2023-01-31T16:12:17.561Z,9.30
2023-01-31T16:14:48.679Z,9.10
2023-01-31T16:17:17.415Z,9.10
2023-01-31T16:19:50.804Z,8.90
2023-01-31T16:22:26.986Z,8.80
2023-01-31T16:24:59.943Z,8.70
2023-01-31T16:27:33.433Z,8.60
2023-01-31T16:30:01.670Z,8.50
2023-01-31T16:32:40.355Z,8.50
2023-01-31T16:35:24.657Z,8.50
2023-01-31T16:38:15.364Z,8.30
2023-01-31T16:40:50.839Z,8.00
2023-01-31T16:43:32.830Z,7.80
2023-01-31T16:46:08.559Z,7.70
2023-01-31T16:48:38.342Z,7.50
2023-01-31T16:51:35.025Z,7.20
2023-01-31T16:54:15.663Z,6.90
2023-01-31T16:57:07.609Z,6.80
2023-01-31T16:59:37.930Z,6.70
2023-01-31T17:02:08.868Z,6.70
2023-01-31T17:04:41.085Z,6.60
2023-01-31T17:07:21.431Z,6.40
2023-01-31T17:09:53.526Z,6.40
2023-01-31T17:12:27.881Z,6.10
2023-01-31T17:15:02.918Z,6.00
2023-01-31T17:17:37.756Z,6.00
2023-01-31T17:20:06.315Z,6.10
2023-01-31T17:22:34.397Z,5.90
2023-01-31T17:25:02.404Z,5.80
2023-01-31T17:27:31.207Z,5.70
2023-01-31T17:29:59.302Z,5.60
2023-01-31T17:32:27.653Z,5.50
2023-01-31T17:34:56.052Z,5.50
2023-01-31T17:37:31.557Z,5.40
2023-01-31T17:40:00.614Z,5.40
2023-01-31T17:42:28.633Z,5.30
2023-01-31T17:44:56.535Z,5.20
2023-01-31T17:47:27.219Z,5.20
2023-01-31T17:49:55.131Z,5.30
2023-01-31T17:52:24.088Z,5.30
2023-01-31T17:54:52.060Z,5.20
2023-01-31T17:57:20.209Z,5.10
2023-01-31T17:59:48.231Z,5.00
2023-01-31T18:02:16.189Z,5.10
2023-01-31T18:04:44.330Z,5.10
2023-01-31T18:07:15.999Z,4.80
2023-01-31T18:09:44.065Z,4.60
2023-01-31T18:12:12.600Z,4.40
2023-01-31T18:14:40.501Z,4.40
2023-01-31T18:17:08.701Z,4.50
2023-01-31T18:19:36.831Z,4.50
2023-01-31T18:22:05.578Z,4.50
2023-01-31T18:24:34.085Z,4.40
2023-01-31T18:27:02.692Z,4.20
2023-01-31T18:29:30.752Z,4.10
2023-01-31T18:32:02.751Z,4.10
2023-01-31T18:34:33.147Z,4.20
2023-01-31T18:37:02.855Z,4.30
2023-01-31T18:39:31.025Z,4.30
2023-01-31T18:41:59.469Z,4.40
2023-01-31T18:44:29.371Z,4.30
2023-01-31T18:46:57.561Z,4.30
2023-01-31T18:49:25.583Z,4.50
2023-01-31T18:51:53.639Z,4.50
2023-01-31T18:54:21.713Z,4.50
2023-01-31T18:56:50.086Z,4.60
2023-01-31T18:59:18.250Z,4.50
2023-01-31T19:01:46.284Z,4.50
2023-01-31T19:04:14.753Z,4.20
2023-01-31T19:06:42.892Z,4.10
2023-01-31T19:09:11.418Z,4.00
2023-01-31T19:11:43.674Z,3.90
2023-01-31T19:14:13.740Z,3.90
2023-01-31T19:16:43.335Z,3.90
2023-01-31T19:19:12.285Z,3.80
2023-01-31T19:21:41.157Z,3.80
2023-01-31T19:24:12.946Z,3.90
2023-01-31T19:26:41.199Z,4.00
2023-01-31T19:29:12.079Z,3.80
2023-01-31T19:31:40.137Z,3.70
2023-01-31T19:34:08.620Z,3.60
2023-01-31T19:36:39.435Z,3.40
2023-01-31T19:39:11.097Z,3.60
2023-01-31T19:41:39.151Z,3.60
2023-01-31T19:44:07.626Z,3.60
2023-01-31T19:46:37.121Z,3.70
2023-01-31T19:49:05.914Z,3.70
2023-01-31T19:51:35.811Z,3.60
2023-01-31T19:54:03.934Z,3.60
2023-01-31T19:56:33.308Z,3.60
2023-01-31T19:59:02.815Z,3.50
2023-01-31T20:01:30.861Z,3.20
2023-01-31T20:03:59.744Z,3.00
2023-01-31T20:06:29.710Z,2.70
2023-01-31T20:09:00.155Z,2.70
2023-01-31T20:11:30.406Z,2.80
2023-01-31T20:14:00.582Z,2.80
2023-01-31T20:16:29.065Z,2.80
2023-01-31T20:18:57.819Z,2.90
2023-01-31T20:21:25.824Z,3.10
2023-01-31T20:23:53.984Z,3.40
2023-01-31T20:26:24.464Z,3.50
2023-01-31T20:28:52.774Z,3.40
2023-01-31T20:31:22.526Z,3.40
2023-01-31T20:33:52.402Z,3.30
2023-01-31T20:36:23.875Z,3.30
2023-01-31T20:38:52.863Z,3.20
2023-01-31T20:41:22.667Z,3.20
2023-01-31T20:43:51.175Z,3.10
2023-01-31T20:46:19.685Z,2.90
2023-01-31T20:48:48.203Z,2.80
2023-01-31T20:51:16.110Z,2.70
2023-01-31T20:53:44.011Z,2.60
2023-01-31T20:56:12.427Z,2.60
2023-01-31T20:58:42.159Z,2.70
2023-01-31T21:01:11.181Z,2.60
2023-01-31T21:03:39.410Z,2.40
2023-01-31T21:06:08.262Z,2.40
2023-01-31T21:08:36.750Z,2.40
2023-01-31T21:11:07.959Z,2.50
2023-01-31T21:13:36.694Z,2.50
2023-01-31T21:16:07.352Z,2.50
2023-01-31T21:18:38.160Z,2.50
2023-01-31T21:21:09.288Z,2.60
2023-01-31T21:23:39.247Z,2.60
2023-01-31T21:26:10.237Z,2.60
2023-01-31T21:28:43.978Z,2.50
2023-01-31T21:31:19.414Z,2.50
2023-01-31T21:33:51.223Z,2.40
2023-01-31T21:36:22.165Z,2.30
2023-01-31T21:38:50.958Z,2.30
2023-01-31T21:41:37.411Z,2.20
2023-01-31T21:44:09.055Z,2.20
2023-01-31T21:46:37.026Z,2.30
2023-01-31T21:49:05.705Z,2.10
2023-01-31T21:51:33.843Z,1.90
2023-01-31T21:54:02.734Z,1.80
2023-01-31T21:56:31.153Z,1.80
2023-01-31T21:58:59.861Z,1.90
2023-01-31T22:01:31.512Z,2.00
2023-01-31T22:04:00.694Z,1.90
2023-01-31T22:06:35.742Z,1.90
2023-01-31T22:09:05.404Z,1.90
2023-01-31T22:11:35.459Z,1.90
2023-01-31T22:14:09.767Z,2.00
2023-01-31T22:16:38.912Z,1.90
2023-01-31T22:19:07.377Z,1.90
2023-01-31T22:21:37.416Z,1.90
2023-01-31T22:24:08.648Z,1.90
2023-01-31T22:26:40.006Z,1.70
2023-01-31T22:29:11.092Z,1.60
2023-01-31T22:31:39.313Z,1.50
2023-01-31T22:34:08.838Z,1.40
2023-01-31T22:36:36.879Z,1.40
2023-01-31T22:39:05.596Z,1.40
2023-01-31T22:41:33.794Z,1.40
2023-01-31T22:44:02.110Z,1.30
2023-01-31T22:46:30.368Z,1.30
2023-01-31T22:48:58.404Z,1.40
2023-01-31T22:51:29.107Z,1.40
2023-01-31T22:53:58.186Z,1.30
2023-01-31T22:56:29.350Z,1.20
2023-01-31T22:59:05.139Z,1.10
2023-01-31T23:01:36.443Z,1.10
2023-01-31T23:04:10.796Z,1.00
2023-01-31T23:06:39.330Z,1.00
2023-01-31T23:09:07.676Z,1.00
2023-01-31T23:11:36.149Z,1.00
2023-01-31T23:14:05.088Z,1.10
2023-01-31T23:16:51.589Z,1.10
2023-01-31T23:19:19.595Z,1.10
2023-01-31T23:21:49.622Z,1.10
2023-01-31T23:24:19.190Z,1.10
2023-01-31T23:26:47.540Z,1.20
2023-01-31T23:29:15.668Z,1.20
2023-01-31T23:31:43.666Z,1.20
2023-01-31T23:34:12.151Z,1.20
2023-01-31T23:36:40.196Z,1.30
2023-01-31T23:39:09.511Z,1.40
2023-01-31T23:41:37.449Z,1.50
2023-01-31T23:44:06.093Z,1.40
2023-01-31T23:46:34.867Z,1.40
2023-01-31T23:49:03.686Z,1.40
2023-01-31T23:51:33.820Z,1.40
2023-01-31T23:54:02.728Z,1.40
2023-01-31T23:56:31.386Z,1.40
2023-01-31T23:58:59.442Z,1.30
